Time;durP1;ratioP1;P1;durP2;ratioP2;P2;SDS_P1;SDS_P2;PMS_P1;PMS_P2;Temp;Humidity;BMP_temperature;BMP_pressure;BME280_temperature;BME280_humidity;BME280_pressure;Samples;Min_cycle;Max_cycle;Signal;HPM_P1;HPM_P2
2021/09/08 00:02:00;;;;;;;11.38;5.85;;;14.40;90.00;;;;;;4990186;28;20037;-72
2021/09/08 00:04:26;;;;;;;7.97;5.68;;;14.40;90.20;;;;;;4990448;28;20145;-72
2021/09/08 00:06:52;;;;;;;7.47;5.47;;;14.40;90.40;;;;;;4992583;28;20143;-72
2021/09/08 00:09:17;;;;;;;9.18;5.72;;;14.40;90.60;;;;;;4986898;28;20081;-72
2021/09/08 00:11:44;;;;;;;8.27;5.72;;;14.40;90.70;;;;;;4989364;28;20042;-72
2021/09/08 00:14:09;;;;;;;7.43;5.82;;;14.40;90.80;;;;;;4988235;28;20029;-73
2021/09/08 00:16:35;;;;;;;7.25;5.68;;;14.40;90.90;;;;;;4983986;28;20084;-72
2021/09/08 00:19:01;;;;;;;10.27;6.55;;;14.40;90.70;;;;;;4990247;28;20040;-72
2021/09/08 00:21:26;;;;;;;14.10;7.80;;;14.40;91.30;;;;;;4991480;28;20042;-72
2021/09/08 00:23:52;;;;;;;10.23;7.32;;;14.50;91.40;;;;;;4994364;28;20030;-72
2021/09/08 00:26:18;;;;;;;8.30;6.43;;;14.50;91.40;;;;;;4985687;28;20642;-71
2021/09/08 00:28:44;;;;;;;9.60;6.32;;;14.50;91.30;;;;;;4988207;28;20018;-72
2021/09/08 00:31:09;;;;;;;9.50;6.22;;;14.50;91.20;;;;;;4988743;28;20128;-73
2021/09/08 00:33:35;;;;;;;8.32;5.85;;;14.50;91.10;;;;;;4989453;28;20037;-72
2021/09/08 00:36:02;;;;;;;10.65;5.70;;;14.50;90.90;;;;;;4986105;28;20137;-72
2021/09/08 00:38:30;;;;;;;7.18;5.53;;;14.50;90.60;;;;;;4988444;28;20121;-72
2021/09/08 00:40:56;;;;;;;7.40;5.25;;;14.50;90.10;;;;;;4991998;28;20146;-72
2021/09/08 00:43:23;;;;;;;8.95;5.40;;;14.40;89.00;;;;;;4991940;28;20034;-72
2021/09/08 00:45:56;;;;;;;9.95;5.47;;;14.30;89.00;;;;;;4991149;28;20026;-72
2021/09/08 00:48:23;;;;;;;8.88;5.55;;;14.30;89.30;;;;;;4985943;28;20033;-72
2021/09/08 00:50:50;;;;;;;7.60;5.30;;;14.20;89.20;;;;;;4988820;28;20119;-72
2021/09/08 00:53:18;;;;;;;6.55;4.95;;;14.20;89.00;;;;;;4986458;28;20033;-72
2021/09/08 00:55:46;;;;;;;7.75;5.53;;;14.20;89.00;;;;;;4987978;28;20092;-72
2021/09/08 00:58:16;;;;;;;6.82;5.07;;;14.10;89.10;;;;;;4983018;28;20036;-72
2021/09/08 01:00:42;;;;;;;7.05;5.43;;;14.10;89.30;;;;;;4986961;28;20142;-72
2021/09/08 01:03:09;;;;;;;7.65;5.35;;;14.10;89.50;;;;;;4988908;28;20030;-72
2021/09/08 01:05:36;;;;;;;6.78;5.10;;;14.10;89.60;;;;;;4989364;28;20049;-72
2021/09/08 01:08:07;;;;;;;7.63;5.28;;;14.00;89.60;;;;;;4994630;28;20034;-71
2021/09/08 01:10:33;;;;;;;6.75;5.40;;;14.00;90.10;;;;;;4989053;28;20038;-72
2021/09/08 01:12:59;;;;;;;7.60;5.25;;;14.00;90.40;;;;;;4987334;28;20030;-73
2021/09/08 01:15:26;;;;;;;7.20;5.35;;;14.00;90.60;;;;;;4990272;28;20038;-72
2021/09/08 01:17:52;;;;;;;8.63;5.22;;;14.10;90.80;;;;;;4989493;28;20044;-72
2021/09/08 01:20:17;;;;;;;8.65;5.93;;;14.10;90.80;;;;;;4987238;28;20761;-72
2021/09/08 01:22:44;;;;;;;8.68;6.20;;;14.10;90.90;;;;;;4986667;28;20741;-73
2021/09/08 01:25:10;;;;;;;8.18;5.65;;;14.20;91.10;;;;;;4991761;28;20038;-72
2021/09/08 01:27:36;;;;;;;7.88;5.88;;;14.20;91.10;;;;;;4991180;28;20048;-72
2021/09/08 01:30:02;;;;;;;12.30;6.88;;;14.20;90.90;;;;;;4986488;28;20042;-72
2021/09/08 01:32:34;;;;;;;10.40;8.00;;;14.20;90.90;;;;;;4993655;28;20401;-72
2021/09/08 01:35:00;;;;;;;15.25;8.07;;;14.20;90.70;;;;;;4988553;28;20516;-73
2021/09/08 01:37:26;;;;;;;13.15;8.13;;;14.20;90.60;;;;;;4986115;28;20043;-72
2021/09/08 01:39:52;;;;;;;15.15;8.60;;;14.20;90.60;;;;;;4986419;28;20038;-73
2021/09/08 01:42:17;;;;;;;14.90;9.10;;;14.20;90.70;;;;;;4987725;28;20041;-72
2021/09/08 01:44:45;;;;;;;13.13;8.48;;;14.20;90.80;;;;;;4990460;28;20038;-73
2021/09/08 01:47:11;;;;;;;16.15;8.82;;;14.20;90.60;;;;;;4994419;28;20135;-72
2021/09/08 01:49:37;;;;;;;16.45;8.07;;;14.20;90.40;;;;;;4994818;28;20354;-71
2021/09/08 01:52:03;;;;;;;14.15;8.52;;;14.20;90.30;;;;;;4995038;28;20113;-72
2021/09/08 01:54:30;;;;;;;11.40;7.50;;;14.10;90.40;;;;;;4990153;28;20034;-72
2021/09/08 01:56:55;;;;;;;14.30;9.05;;;14.10;90.50;;;;;;4984540;28;20041;-72
2021/09/08 01:59:21;;;;;;;13.52;8.52;;;14.10;90.70;;;;;;4989227;28;20038;-72
2021/09/08 02:01:47;;;;;;;11.82;8.48;;;14.00;90.80;;;;;;4984602;28;20026;-72
2021/09/08 02:04:13;;;;;;;12.15;9.00;;;14.00;90.70;;;;;;4990154;28;20093;-71
2021/09/08 02:06:48;;;;;;;11.30;7.63;;;14.00;90.60;;;;;;4989250;28;20048;-72
2021/09/08 02:09:14;;;;;;;14.32;9.10;;;14.00;90.40;;;;;;4991001;28;20603;-72
2021/09/08 02:11:41;;;;;;;14.80;9.57;;;14.00;90.40;;;;;;4989524;28;20100;-71
2021/09/08 02:14:07;;;;;;;12.32;8.75;;;13.90;90.20;;;;;;4989542;28;20107;-73
2021/09/08 02:16:33;;;;;;;13.18;8.48;;;13.90;90.10;;;;;;4989305;28;20594;-72
2021/09/08 02:18:59;;;;;;;13.80;8.10;;;13.90;90.10;;;;;;4987824;28;20031;-72
2021/09/08 02:21:25;;;;;;;16.55;8.50;;;13.80;90.10;;;;;;4986019;28;20061;-72
2021/09/08 02:23:51;;;;;;;11.65;8.18;;;13.80;90.30;;;;;;4983675;28;20096;-72
2021/09/08 02:26:16;;;;;;;13.55;8.27;;;13.70;90.40;;;;;;4986814;28;20034;-72
2021/09/08 02:28:42;;;;;;;12.50;7.78;;;13.70;90.50;;;;;;4983268;28;20074;-71
2021/09/08 02:31:09;;;;;;;14.27;7.80;;;13.80;90.60;;;;;;4991355;28;20107;-72
2021/09/08 02:33:35;;;;;;;12.40;7.78;;;13.80;90.60;;;;;;4983928;28;20026;-72
2021/09/08 02:36:02;;;;;;;18.02;8.57;;;13.80;90.90;;;;;;4985363;28;20038;-73
2021/09/08 02:38:28;;;;;;;12.27;8.90;;;13.70;91.00;;;;;;4991246;28;20034;-71
2021/09/08 02:40:54;;;;;;;13.07;8.43;;;13.70;91.00;;;;;;4982412;28;20554;-71
2021/09/08 02:43:19;;;;;;;12.05;8.35;;;13.80;91.00;;;;;;4983046;28;20188;-73
2021/09/08 02:45:45;;;;;;;12.73;8.32;;;13.70;90.90;;;;;;4989353;28;20058;-71
2021/09/08 02:48:11;;;;;;;11.70;7.45;;;13.70;90.60;;;;;;4993831;28;20065;-73
2021/09/08 02:50:36;;;;;;;13.25;7.45;;;13.70;90.50;;;;;;4992591;28;20038;-72
2021/09/08 02:53:02;;;;;;;12.25;7.63;;;13.70;90.40;;;;;;4988266;28;20509;-72
2021/09/08 02:55:28;;;;;;;11.43;7.75;;;13.70;90.30;;;;;;4991227;28;20043;-73
2021/09/08 02:57:54;;;;;;;12.68;7.80;;;13.60;90.20;;;;;;4992078;28;20053;-73
2021/09/08 03:00:19;;;;;;;10.95;7.07;;;13.60;90.30;;;;;;4986778;28;20616;-72
2021/09/08 03:02:45;;;;;;;8.75;6.95;;;13.50;90.20;;;;;;4990615;28;20045;-73
2021/09/08 03:05:11;;;;;;;9.90;6.93;;;13.50;90.00;;;;;;4982743;28;20481;-72
2021/09/08 03:07:37;;;;;;;12.50;6.65;;;13.50;89.80;;;;;;4986285;28;20140;-72
2021/09/08 03:10:03;;;;;;;10.38;6.75;;;13.50;89.50;;;;;;4984663;28;20034;-72
2021/09/08 03:12:29;;;;;;;8.98;6.03;;;13.40;89.30;;;;;;4987267;28;20097;-73
2021/09/08 03:14:54;;;;;;;9.30;5.55;;;13.40;89.00;;;;;;4990081;28;20550;-72
2021/09/08 03:17:20;;;;;;;9.10;5.82;;;13.30;89.20;;;;;;5005599;28;20049;-73
2021/09/08 03:19:46;;;;;;;8.77;6.50;;;13.30;89.60;;;;;;4991656;28;20042;-72
2021/09/08 03:22:11;;;;;;;9.35;6.05;;;13.20;90.00;;;;;;4991211;28;20030;-72
2021/09/08 03:24:37;;;;;;;8.15;5.85;;;13.20;90.20;;;;;;4999456;28;20031;-73
2021/09/08 03:27:04;;;;;;;9.27;6.32;;;13.20;90.50;;;;;;4992667;28;20034;-72
2021/09/08 03:29:30;;;;;;;9.48;6.78;;;13.30;90.50;;;;;;4990995;28;20038;-73
2021/09/08 03:31:55;;;;;;;10.75;6.78;;;13.20;90.70;;;;;;4993270;28;20033;-73
2021/09/08 03:34:21;;;;;;;8.98;6.35;;;13.20;90.80;;;;;;4988300;28;20370;-73
2021/09/08 03:36:46;;;;;;;10.85;6.75;;;13.20;90.70;;;;;;4988144;28;20041;-74
2021/09/08 03:39:12;;;;;;;8.80;6.03;;;13.20;90.60;;;;;;4988408;28;20030;-74
2021/09/08 03:41:38;;;;;;;10.48;6.90;;;13.20;90.60;;;;;;4989182;28;20060;-73
2021/09/08 03:44:03;;;;;;;10.30;6.53;;;13.20;90.60;;;;;;4990247;28;20672;-74
2021/09/08 03:46:29;;;;;;;10.52;6.50;;;13.20;90.80;;;;;;4990158;28;20113;-73
2021/09/08 03:48:55;;;;;;;10.35;6.75;;;13.30;90.80;;;;;;4992354;28;20026;-73
2021/09/08 03:51:20;;;;;;;9.38;6.82;;;13.20;90.70;;;;;;4985888;28;20061;-74
2021/09/08 03:53:46;;;;;;;11.13;6.88;;;13.20;90.60;;;;;;4989257;28;20030;-73
2021/09/08 03:56:12;;;;;;;10.45;7.60;;;13.20;90.50;;;;;;4993208;28;20026;-73
2021/09/08 03:58:37;;;;;;;12.73;6.63;;;13.20;90.60;;;;;;4983791;28;20037;-74
2021/09/08 04:01:03;;;;;;;10.48;6.65;;;13.20;90.50;;;;;;4992474;28;20045;-73
2021/09/08 04:03:29;;;;;;;9.40;6.53;;;13.20;90.30;;;;;;4986831;28;20034;-74
2021/09/08 04:05:56;;;;;;;9.15;6.22;;;13.20;90.30;;;;;;5003863;28;20041;-74
2021/09/08 04:08:21;;;;;;;9.25;6.07;;;13.10;90.50;;;;;;4984477;28;20394;-74
2021/09/08 04:10:47;;;;;;;10.95;6.82;;;13.10;90.30;;;;;;4987454;28;20034;-73
2021/09/08 04:13:12;;;;;;;8.02;6.13;;;13.10;90.30;;;;;;4986676;28;20062;-73
2021/09/08 04:15:38;;;;;;;14.57;6.00;;;13.10;90.00;;;;;;4984786;28;20030;-74
2021/09/08 04:18:04;;;;;;;9.40;6.60;;;13.00;90.00;;;;;;4991125;28;20916;-73
2021/09/08 04:20:30;;;;;;;8.25;5.75;;;13.00;90.30;;;;;;4990407;28;20536;-73
2021/09/08 04:22:55;;;;;;;9.63;6.45;;;12.90;90.30;;;;;;4987095;28;20022;-74
2021/09/08 04:25:21;;;;;;;9.48;6.57;;;12.90;90.70;;;;;;4986244;28;20478;-74
2021/09/08 04:27:47;;;;;;;10.25;7.07;;;12.90;90.40;;;;;;4992332;28;20117;-73
2021/09/08 04:30:12;;;;;;;9.43;6.45;;;12.90;90.30;;;;;;4989355;28;20037;-73
2021/09/08 04:32:38;;;;;;;8.18;6.50;;;12.90;90.30;;;;;;4994118;28;20086;-73
2021/09/08 04:35:04;;;;;;;10.32;7.15;;;12.90;90.40;;;;;;4997740;28;20487;-73
2021/09/08 04:37:32;;;;;;;10.13;6.43;;;12.80;90.40;;;;;;4989271;28;20038;-73
2021/09/08 04:39:57;;;;;;;10.35;6.57;;;12.80;90.50;;;;;;4995482;28;20038;-73
2021/09/08 04:42:23;;;;;;;8.40;6.10;;;12.80;90.30;;;;;;4992648;28;20076;-72
2021/09/08 04:44:49;;;;;;;21.17;12.32;;;12.80;90.30;;;;;;4985313;28;20783;-73
2021/09/08 04:47:14;;;;;;;13.02;8.18;;;12.90;91.50;;;;;;4988178;28;20030;-72
2021/09/08 04:49:40;;;;;;;11.02;7.60;;;12.90;91.20;;;;;;4998167;28;20041;-72
2021/09/08 04:52:06;;;;;;;15.82;9.27;;;12.90;91.10;;;;;;4992689;28;20037;-73
2021/09/08 04:54:31;;;;;;;13.38;8.02;;;12.90;91.30;;;;;;4996260;28;20173;-72
2021/09/08 04:56:57;;;;;;;12.15;7.88;;;12.90;91.40;;;;;;4995551;28;20491;-72
2021/09/08 04:59:23;;;;;;;17.08;9.48;;;13.00;91.30;;;;;;4992126;28;20236;-73
2021/09/08 05:01:48;;;;;;;18.58;12.98;;;13.00;91.30;;;;;;5000468;28;20490;-72
2021/09/08 05:04:14;;;;;;;15.05;10.65;;;13.00;92.10;;;;;;4989181;28;20779;-72
2021/09/08 05:06:40;;;;;;;24.30;14.80;;;13.10;91.90;;;;;;4992680;28;20045;-71
2021/09/08 05:09:05;;;;;;;20.73;12.75;;;13.20;92.30;;;;;;4987611;28;20042;-72
2021/09/08 05:11:31;;;;;;;17.30;11.23;;;13.30;92.50;;;;;;4992002;28;20095;-72
2021/09/08 05:13:57;;;;;;;19.80;10.80;;;13.40;92.30;;;;;;4989768;28;20092;-72
2021/09/08 05:16:22;;;;;;;14.20;9.40;;;13.50;92.00;;;;;;4985328;28;20383;-72
2021/09/08 05:18:48;;;;;;;11.80;8.52;;;13.50;91.60;;;;;;4988309;28;20039;-72
2021/09/08 05:21:14;;;;;;;15.68;9.27;;;13.50;91.30;;;;;;4991952;28;20026;-73
2021/09/08 05:23:39;;;;;;;19.50;10.20;;;13.50;91.10;;;;;;4985488;28;20472;-72
2021/09/08 05:26:06;;;;;;;13.00;9.35;;;13.60;91.20;;;;;;4991574;28;20227;-72
2021/09/08 05:28:32;;;;;;;12.38;8.73;;;13.60;91.10;;;;;;4993475;28;20040;-72
2021/09/08 05:30:57;;;;;;;15.75;9.00;;;13.60;90.90;;;;;;4993121;28;20042;-72
2021/09/08 05:33:23;;;;;;;12.57;7.40;;;13.60;91.20;;;;;;4985161;28;20096;-72
2021/09/08 05:35:49;;;;;;;9.00;7.03;;;13.60;91.10;;;;;;4990505;28;20782;-73
2021/09/08 05:38:15;;;;;;;11.38;7.25;;;13.60;90.90;;;;;;4983147;28;20052;-72
2021/09/08 05:40:41;;;;;;;7.93;6.45;;;13.60;90.80;;;;;;4985640;28;20046;-72
2021/09/08 05:43:06;;;;;;;19.58;12.75;;;13.70;90.70;;;;;;4988006;28;20034;-72
2021/09/08 05:45:32;;;;;;;15.55;10.25;;;13.70;90.90;;;;;;4992395;28;20033;-72
2021/09/08 05:47:58;;;;;;;12.93;10.02;;;13.80;91.20;;;;;;4982323;28;20030;-72
2021/09/08 05:50:23;;;;;;;16.90;11.30;;;13.80;91.30;;;;;;4987295;28;20401;-72
2021/09/08 05:52:49;;;;;;;16.50;11.90;;;13.90;91.70;;;;;;4988106;28;20045;-72
2021/09/08 05:55:15;;;;;;;20.13;14.20;;;14.00;91.80;;;;;;4992293;28;20033;-72
2021/09/08 05:57:40;;;;;;;18.90;13.23;;;14.10;92.10;;;;;;4986489;28;20042;-72
2021/09/08 06:00:06;;;;;;;16.55;11.73;;;14.20;92.10;;;;;;4990682;28;20029;-72
2021/09/08 06:02:37;;;;;;;17.20;12.63;;;14.30;92.20;;;;;;4989978;28;20041;-72
2021/09/08 06:05:03;;;;;;;17.55;11.27;;;14.30;92.30;;;;;;4985235;28;20042;-72
2021/09/08 06:07:29;;;;;;;21.02;14.15;;;14.40;92.30;;;;;;4992038;28;20113;-72
2021/09/08 06:09:54;;;;;;;19.80;12.32;;;14.50;92.40;;;;;;4988402;28;20132;-72
2021/09/08 06:12:20;;;;;;;18.13;11.77;;;14.60;92.40;;;;;;4988567;28;20034;-72
2021/09/08 06:14:46;;;;;;;18.10;12.90;;;14.80;92.50;;;;;;4985182;28;20547;-72
2021/09/08 06:17:11;;;;;;;19.55;14.02;;;14.90;92.50;;;;;;4980876;28;20041;-72
2021/09/08 06:19:37;;;;;;;24.30;15.13;;;15.00;92.40;;;;;;4970235;28;20049;-72
2021/09/08 06:22:04;;;;;;;24.58;15.60;;;15.00;92.50;;;;;;4985355;28;20069;-72
2021/09/08 06:24:29;;;;;;;24.10;15.20;;;15.10;92.50;;;;;;4988750;28;20041;-73
2021/09/08 06:26:55;;;;;;;20.77;14.40;;;15.30;92.50;;;;;;4994370;28;20797;-71
2021/09/08 06:29:21;;;;;;;26.52;14.93;;;15.30;92.50;;;;;;4988680;28;20048;-72
2021/09/08 06:31:46;;;;;;;24.20;17.23;;;15.40;92.50;;;;;;4986161;28;20037;-72
2021/09/08 06:34:12;;;;;;;22.13;15.50;;;15.50;92.60;;;;;;4990304;28;20034;-72
2021/09/08 06:36:38;;;;;;;23.98;16.30;;;15.60;92.50;;;;;;4994720;28;20122;-72
2021/09/08 06:39:03;;;;;;;30.08;17.63;;;15.70;92.40;;;;;;4993984;28;20030;-72
2021/09/08 06:41:29;;;;;;;22.98;16.13;;;15.80;92.30;;;;;;4985006;28;20125;-72
2021/09/08 06:43:55;;;;;;;26.52;18.73;;;16.00;92.20;;;;;;4989448;28;20026;-72
2021/09/08 06:46:20;;;;;;;27.42;17.13;;;16.10;92.00;;;;;;4991296;28;20561;-72
2021/09/08 06:48:46;;;;;;;23.63;16.63;;;16.30;91.70;;;;;;4985340;28;20042;-72
2021/09/08 06:51:12;;;;;;;24.00;16.00;;;16.40;91.60;;;;;;4989429;28;20067;-72
2021/09/08 06:53:38;;;;;;;22.00;15.38;;;16.60;91.20;;;;;;4987657;28;20034;-72
2021/09/08 06:56:06;;;;;;;24.80;15.05;;;16.70;91.00;;;;;;4991120;28;20029;-72
2021/09/08 06:58:31;;;;;;;23.95;16.17;;;16.80;90.80;;;;;;4994099;28;20101;-72
2021/09/08 07:00:57;;;;;;;23.92;14.90;;;16.90;90.70;;;;;;4994083;28;20042;-72
2021/09/08 07:03:23;;;;;;;21.25;14.25;;;17.00;90.60;;;;;;4987506;28;20042;-72
2021/09/08 07:05:48;;;;;;;20.08;13.90;;;17.10;90.60;;;;;;4986056;28;20037;-72
2021/09/08 07:08:15;;;;;;;26.00;15.43;;;17.20;90.50;;;;;;4989442;28;20042;-72
2021/09/08 07:10:41;;;;;;;20.65;14.73;;;17.30;90.20;;;;;;4984383;28;20158;-72
2021/09/08 07:13:08;;;;;;;21.63;13.75;;;17.40;90.00;;;;;;4997906;28;20913;-71
2021/09/08 07:15:34;;;;;;;21.98;13.20;;;17.70;89.50;;;;;;5007256;28;20034;-72
2021/09/08 07:18:00;;;;;;;18.52;12.45;;;18.10;88.20;;;;;;4992869;28;20068;-73
2021/09/08 07:20:26;;;;;;;17.33;11.98;;;18.40;86.50;;;;;;4992726;28;20176;-72
2021/09/08 07:22:52;;;;;;;18.65;11.80;;;18.80;85.50;;;;;;5001342;28;20774;-71
2021/09/08 07:25:18;;;;;;;16.75;11.68;;;19.10;83.90;;;;;;4986691;28;20080;-71
2021/09/08 07:27:44;;;;;;;16.85;11.40;;;19.10;83.30;;;;;;4985311;28;20022;-72
2021/09/08 07:30:10;;;;;;;16.70;11.23;;;19.10;82.40;;;;;;4988909;28;20046;-71
2021/09/08 07:32:35;;;;;;;20.92;13.70;;;19.00;82.80;;;;;;4990769;28;20030;-68
2021/09/08 07:35:01;;;;;;;17.15;10.93;;;19.10;83.30;;;;;;4995430;28;20030;-71
2021/09/08 07:37:27;;;;;;;19.00;10.88;;;19.00;83.40;;;;;;4996124;28;20038;-71
2021/09/08 07:39:54;;;;;;;14.88;10.18;;;19.00;83.40;;;;;;4989298;28;20068;-70
2021/09/08 07:42:19;;;;;;;14.90;9.98;;;19.10;82.20;;;;;;4996011;28;20030;-71
2021/09/08 07:44:45;;;;;;;14.50;10.15;;;19.20;82.20;;;;;;4996472;28;20137;-70
2021/09/08 07:47:11;;;;;;;17.70;9.98;;;19.20;81.40;;;;;;4995619;28;20096;-71
2021/09/08 07:49:37;;;;;;;14.13;9.52;;;19.30;80.70;;;;;;4990217;28;20368;-70
2021/09/08 07:52:03;;;;;;;13.25;8.90;;;19.40;80.30;;;;;;4997957;28;20358;-71
2021/09/08 07:54:29;;;;;;;14.43;8.90;;;19.50;79.30;;;;;;4990983;28;20034;-69
2021/09/08 07:56:55;;;;;;;13.80;8.60;;;19.60;78.80;;;;;;5005317;28;20038;-71
2021/09/08 07:59:21;;;;;;;13.73;8.88;;;19.70;78.40;;;;;;4989742;28;20034;-71
2021/09/08 08:01:47;;;;;;;12.40;8.57;;;19.70;76.80;;;;;;4986325;28;20038;-71
2021/09/08 08:04:12;;;;;;;13.13;8.63;;;19.70;77.50;;;;;;4994057;28;20049;-71
2021/09/08 08:06:39;;;;;;;12.93;7.95;;;19.80;77.10;;;;;;4989199;28;20085;-71
2021/09/08 08:09:05;;;;;;;13.63;8.27;;;19.80;77.20;;;;;;4990304;28;20428;-71
2021/09/08 08:11:31;;;;;;;10.60;7.85;;;19.90;76.70;;;;;;4990929;28;20034;-71
2021/09/08 08:13:57;;;;;;;16.08;8.57;;;20.00;76.80;;;;;;4989779;28;20022;-67
2021/09/08 08:16:23;;;;;;;12.40;8.23;;;20.00;75.70;;;;;;5001012;28;20097;-71
2021/09/08 08:18:49;;;;;;;11.57;8.00;;;20.20;75.50;;;;;;4998503;28;20116;-70
2021/09/08 08:21:15;;;;;;;9.45;7.38;;;20.20;74.00;;;;;;4993276;28;20045;-71
2021/09/08 08:23:41;;;;;;;11.73;8.18;;;20.30;75.10;;;;;;4990080;28;20134;-69
2021/09/08 08:26:06;;;;;;;10.57;7.53;;;20.40;74.40;;;;;;4989378;28;20109;-70
2021/09/08 08:28:32;;;;;;;12.93;8.13;;;20.80;73.60;;;;;;4986285;28;20061;-70
2021/09/08 08:30:59;;;;;;;14.50;8.40;;;21.10;72.40;;;;;;4992666;28;20453;-70
2021/09/08 08:33:26;;;;;;;9.43;6.85;;;21.10;72.20;;;;;;4995885;28;20622;-71
2021/09/08 08:35:52;;;;;;;11.98;7.45;;;21.10;71.60;;;;;;4996105;28;20061;-71
2021/09/08 08:38:17;;;;;;;10.95;7.68;;;21.10;72.10;;;;;;4987834;28;20177;-71
2021/09/08 08:40:44;;;;;;;10.75;8.20;;;21.10;71.70;;;;;;5008249;28;20070;-69
2021/09/08 08:43:10;;;;;;;10.52;7.60;;;21.00;72.00;;;;;;4993200;28;20161;-70
2021/09/08 08:45:36;;;;;;;12.00;7.68;;;21.10;72.20;;;;;;4994033;28;20030;-68
2021/09/08 08:48:03;;;;;;;12.10;7.40;;;21.10;72.30;;;;;;4993507;28;20065;-68
2021/09/08 08:50:29;;;;;;;12.38;7.90;;;21.10;71.20;;;;;;4991818;28;20148;-70
2021/09/08 08:52:56;;;;;;;12.25;7.63;;;21.10;70.90;;;;;;4988718;28;20714;-70
2021/09/08 08:55:22;;;;;;;11.68;7.35;;;21.20;70.80;;;;;;4996765;28;20398;-71
2021/09/08 08:57:48;;;;;;;14.07;7.97;;;21.30;71.90;;;;;;4992669;28;20037;-71
2021/09/08 09:00:19;;;;;;;11.20;8.18;;;21.90;69.80;;;;;;5000075;28;20974;-70
2021/09/08 09:02:50;;;;;;;9.93;6.88;;;22.10;68.10;;;;;;4992011;28;20042;-69
2021/09/08 09:05:31;;;;;;;13.38;7.68;;;22.20;67.50;;;;;;4991292;28;20030;-69
2021/09/08 09:07:57;;;;;;;10.82;7.20;;;22.20;68.00;;;;;;4985092;28;20037;-69
2021/09/08 09:10:23;;;;;;;11.55;7.47;;;22.10;67.50;;;;;;4991330;28;20044;-68
2021/09/08 09:12:49;;;;;;;13.30;7.85;;;22.20;68.90;;;;;;4994863;28;20038;-71
2021/09/08 09:15:20;;;;;;;11.70;7.93;;;22.20;67.60;;;;;;4990960;28;20169;-69
2021/09/08 09:17:46;;;;;;;11.27;7.53;;;22.30;69.00;;;;;;4991589;28;20140;-72
2021/09/08 09:20:32;;;;;;;11.70;6.93;;;22.30;69.50;;;;;;5004054;28;20046;-71
2021/09/08 09:23:01;;;;;;;14.40;7.65;;;22.50;68.10;;;;;;4989718;28;20088;-71
2021/09/08 09:25:29;;;;;;;13.18;7.00;;;22.60;67.00;;;;;;4994014;28;20042;-72
2021/09/08 09:28:04;;;;;;;11.43;7.07;;;22.80;66.40;;;;;;4991642;28;20042;-71
2021/09/08 09:30:33;;;;;;;10.33;7.50;;;22.80;66.90;;;;;;4991028;28;20267;-71
2021/09/08 09:33:00;;;;;;;11.73;6.93;;;23.00;63.80;;;;;;4993667;28;20057;-71
2021/09/08 09:35:28;;;;;;;12.93;8.38;;;23.10;63.40;;;;;;4992541;28;20080;-72
2021/09/08 09:37:57;;;;;;;9.55;7.28;;;23.10;64.70;;;;;;5008880;28;20041;-70
2021/09/08 09:40:35;;;;;;;10.60;6.85;;;23.10;64.70;;;;;;4989394;28;20205;-71
2021/09/08 09:43:08;;;;;;;8.18;7.22;;;23.10;63.30;;;;;;4992649;28;20112;-72
2021/09/08 09:45:36;;;;;;;9.90;7.22;;;23.10;64.70;;;;;;4992781;28;20088;-71
2021/09/08 09:48:04;;;;;;;10.75;6.90;;;23.20;63.70;;;;;;4994869;28;20040;-71
2021/09/08 09:50:31;;;;;;;10.18;7.18;;;23.30;63.80;;;;;;5005199;28;20070;-71
2021/09/08 09:52:57;;;;;;;8.32;6.47;;;23.40;63.80;;;;;;4992513;28;20449;-71
2021/09/08 09:55:25;;;;;;;12.45;6.13;;;23.50;63.70;;;;;;4990275;28;20038;-71
2021/09/08 09:57:51;;;;;;;11.10;7.22;;;23.80;63.20;;;;;;4991542;28;20108;-71
2021/09/08 10:00:18;;;;;;;11.40;7.05;;;24.10;60.20;;;;;;4991200;28;20470;-71
2021/09/08 10:02:45;;;;;;;13.77;6.80;;;24.50;59.60;;;;;;4987679;28;20092;-73
2021/09/08 10:05:12;;;;;;;11.70;6.82;;;24.40;59.50;;;;;;4986900;28;20038;-71
2021/09/08 10:07:38;;;;;;;10.20;6.60;;;24.40;59.80;;;;;;4991427;28;20153;-71
2021/09/08 10:10:14;;;;;;;9.77;6.97;;;24.40;58.10;;;;;;4989896;28;20057;-71
2021/09/08 10:12:45;;;;;;;10.25;6.80;;;24.50;58.50;;;;;;4990631;28;20037;-71
2021/09/08 10:15:14;;;;;;;10.75;7.15;;;24.30;59.10;;;;;;4990373;28;20895;-71
2021/09/08 10:17:45;;;;;;;7.68;6.00;;;24.10;59.20;;;;;;4992397;28;20139;-71
2021/09/08 10:20:14;;;;;;;10.57;7.28;;;24.00;61.80;;;;;;4992091;28;20049;-72
2021/09/08 10:22:43;;;;;;;9.98;6.93;;;23.90;61.80;;;;;;4987126;28;20065;-71
2021/09/08 10:25:12;;;;;;;11.75;8.32;;;23.90;61.30;;;;;;4988195;28;20573;-71
2021/09/08 10:27:38;;;;;;;9.00;7.03;;;23.90;59.90;;;;;;4987419;28;20030;-71
2021/09/08 10:30:05;;;;;;;11.20;7.53;;;23.90;58.90;;;;;;4989213;28;20038;-71
2021/09/08 10:32:32;;;;;;;10.00;7.05;;;23.90;59.10;;;;;;4991348;28;20827;-71
2021/09/08 10:34:57;;;;;;;12.48;7.55;;;23.80;58.90;;;;;;4986252;28;20030;-71
2021/09/08 10:37:23;;;;;;;11.88;7.85;;;23.80;59.00;;;;;;4990354;28;20430;-71
2021/09/08 10:39:49;;;;;;;10.73;7.43;;;23.90;58.40;;;;;;4990338;28;20034;-72
2021/09/08 10:42:16;;;;;;;13.10;8.05;;;23.80;57.70;;;;;;4979188;28;20540;-72
2021/09/08 10:44:51;;;;;;;11.43;8.13;;;23.80;59.50;;;;;;4992018;28;20072;-73
2021/09/08 10:47:35;;;;;;;10.05;7.45;;;23.90;59.00;;;;;;4997638;28;20034;-72
2021/09/08 10:50:02;;;;;;;12.40;8.05;;;23.80;58.00;;;;;;4993090;28;20401;-73
2021/09/08 10:52:37;;;;;;;8.90;6.80;;;23.80;58.60;;;;;;4995276;28;20453;-72
2021/09/08 10:55:02;;;;;;;8.40;7.32;;;23.80;58.30;;;;;;4995143;28;20927;-72
2021/09/08 10:57:49;;;;;;;17.10;8.30;;;23.80;60.30;;;;;;4995769;28;20053;-71
2021/09/08 11:00:36;;;;;;;11.57;8.13;;;23.70;59.40;;;;;;4996385;28;20611;-72
2021/09/08 11:03:04;;;;;;;13.38;7.45;;;23.80;59.30;;;;;;4995229;28;20133;-73
2021/09/08 11:05:30;;;;;;;11.00;7.05;;;23.90;60.70;;;;;;4991928;28;20537;-73
2021/09/08 11:07:56;;;;;;;10.10;7.03;;;24.00;59.30;;;;;;4997193;28;20057;-73
2021/09/08 11:10:31;;;;;;;9.80;6.57;;;24.20;57.70;;;;;;4995711;28;20033;-75
2021/09/08 11:12:59;;;;;;;12.47;7.60;;;24.20;57.00;;;;;;4992790;28;20038;-71
2021/09/08 11:15:32;;;;;;;14.27;7.47;;;24.20;58.60;;;;;;4994563;28;20052;-71
2021/09/08 11:17:58;;;;;;;8.35;6.35;;;24.10;56.10;;;;;;4992479;28;20046;-72
2021/09/08 11:20:24;;;;;;;11.60;8.00;;;24.20;56.10;;;;;;4994455;28;20401;-72
2021/09/08 11:23:07;;;;;;;12.68;7.80;;;24.20;58.40;;;;;;4993404;28;20537;-72
2021/09/08 11:25:35;;;;;;;9.98;7.45;;;24.30;57.40;;;;;;5002089;28;20034;-71
2021/09/08 11:28:02;;;;;;;8.68;6.22;;;24.30;56.60;;;;;;4992171;28;20033;-69
2021/09/08 11:30:31;;;;;;;10.10;7.00;;;24.30;55.00;;;;;;5007222;28;20091;-70
2021/09/08 11:33:09;;;;;;;13.10;6.70;;;24.30;56.40;;;;;;4993295;28;20045;-70
2021/09/08 11:35:45;;;;;;;8.95;6.82;;;24.40;54.20;;;;;;4996540;28;20429;-70
2021/09/08 11:38:19;;;;;;;9.57;7.03;;;24.40;55.30;;;;;;4997007;28;20057;-69
2021/09/08 11:40:48;;;;;;;9.95;7.57;;;24.40;55.60;;;;;;5001051;28;20044;-70
2021/09/08 11:43:39;;;;;;;10.48;7.15;;;24.40;56.60;;;;;;4994503;28;20026;-71
2021/09/08 11:46:12;;;;;;;9.45;7.25;;;24.20;57.00;;;;;;4995744;28;20038;-70
2021/09/08 11:48:38;;;;;;;9.00;6.70;;;24.20;57.90;;;;;;4994513;28;20560;-70
2021/09/08 11:51:06;;;;;;;12.60;6.70;;;24.30;57.80;;;;;;4993760;28;20030;-71
2021/09/08 11:53:32;;;;;;;10.85;7.25;;;24.40;54.80;;;;;;4991468;28;20637;-70
2021/09/08 11:56:14;;;;;;;10.35;8.15;;;24.40;57.30;;;;;;4992308;28;20125;-72
2021/09/08 11:58:41;;;;;;;8.70;6.95;;;24.60;54.60;;;;;;4993666;28;20037;-70
2021/09/08 12:01:09;;;;;;;11.48;7.18;;;24.60;56.00;;;;;;4991984;28;20049;-70
2021/09/08 12:03:56;;;;;;;7.90;6.57;;;24.60;56.20;;;;;;4993722;28;20113;-70
2021/09/08 12:06:23;;;;;;;9.70;7.25;;;24.60;54.10;;;;;;4993732;28;20383;-69
2021/09/08 12:09:11;;;;;;;10.88;6.32;;;24.60;56.50;;;;;;4991440;28;20164;-71
2021/09/08 12:11:41;;;;;;;9.80;6.72;;;24.60;55.90;;;;;;4987299;28;20084;-71
2021/09/08 12:14:19;;;;;;;12.48;8.70;;;24.70;54.90;;;;;;4990181;28;20110;-70
2021/09/08 12:16:49;;;;;;;11.77;7.28;;;24.80;55.40;;;;;;4990668;28;20081;-70
2021/09/08 12:19:28;;;;;;;17.63;7.97;;;24.80;55.40;;;;;;4988324;28;20038;-71
2021/09/08 12:22:04;;;;;;;13.25;7.63;;;24.90;55.20;;;;;;4987348;28;20034;-70
2021/09/08 12:24:32;;;;;;;12.45;10.23;;;25.00;56.10;;;;;;4996381;28;20044;-71
2021/09/08 12:26:59;;;;;;;12.43;8.50;;;24.80;55.10;;;;;;4991824;28;20049;-71
2021/09/08 12:29:25;;;;;;;12.13;9.50;;;24.80;55.40;;;;;;4995051;28;20045;-70
2021/09/08 12:32:02;;;;;;;10.80;7.60;;;24.80;56.70;;;;;;4994838;28;20042;-70
2021/09/08 12:34:50;;;;;;;9.48;6.22;;;24.80;56.00;;;;;;4991234;28;20676;-70
2021/09/08 12:37:17;;;;;;;8.85;6.75;;;24.70;54.10;;;;;;4993573;28;20565;-72
2021/09/08 12:39:48;;;;;;;9.25;6.20;;;24.70;54.40;;;;;;4993148;28;20031;-71